This is the latest recevied weather packets stored in our database for station/object KE5YIM-13. If no packets are shown the sender has not sent any weather packets the latest 1 day(s).
| Time | Temp. | Humidity | Pressure | Rain* | Wind** | Luminosity | Snow |
|---|---|---|---|---|---|---|---|
| 1778005517 | 21.67° C | 61% | 1010.8 hPa | 0 mm | 2.68 m/s, 260° | 745 W/m² | - |
| 1778005214 | 22.22° C | 61% | 1010.8 hPa | 0 mm | 2.24 m/s, 226° | 753 W/m² | - |
| 1778004911 | 21.67° C | 63% | 1010.8 hPa | 0 mm | 1.34 m/s, 182° | 760 W/m² | - |
| 1778004608 | 21.67° C | 63% | 1010.9 hPa | 0 mm | 1.34 m/s, 193° | 767 W/m² | - |
| 1778004304 | 22.22° C | 64% | 1010.7 hPa | 0 mm | 0.89 m/s, 161° | 771 W/m² | - |
| 1778004001 | 21.67° C | 62% | 1011 hPa | 0 mm | 2.68 m/s, 207° | 779 W/m² | - |
| 1778003697 | 22.22° C | 63% | 1010.9 hPa | 0 mm | 1.34 m/s, 160° | 782 W/m² | - |
| 1778003394 | 22.22° C | 61% | 1010.7 hPa | 0 mm | 1.34 m/s, 157° | 787 W/m² | - |
| 1778003091 | 22.78° C | 60% | 1011 hPa | 0 mm | 1.79 m/s, 225° | 787 W/m² | - |
| 1778002787 | 22.22° C | 62% | 1010.8 hPa | 0 mm | 1.34 m/s, 122° | 794 W/m² | - |
| 1778002483 | 22.22° C | 60% | 1011.2 hPa | 0 mm | 3.13 m/s, 180° | 798 W/m² | - |
| 1778002181 | 22.22° C | 62% | 1011.2 hPa | 0 mm | 2.24 m/s, 122° | 803 W/m² | - |
| 1778001879 | 22.22° C | 61% | 1011.2 hPa | 0 mm | 2.24 m/s, 221° | 805 W/m² | - |
| 1778001578 | 22.22° C | 64% | 1011.1 hPa | 0 mm | 1.34 m/s, 176° | 807 W/m² | - |
| 1778001275 | 21.67° C | 61% | 1011.3 hPa | 0 mm | 2.68 m/s, 233° | 809 W/m² | - |
| 1778000972 | 22.22° C | 61% | 1011.1 hPa | 0 mm | 2.24 m/s, 129° | 811 W/m² | - |
| 1778000669 | 21.67° C | 62% | 1011.2 hPa | 0 mm | 1.79 m/s, 267° | 813 W/m² | - |
| 1778000364 | 21.67° C | 62% | 1011.2 hPa | 0 mm | 1.34 m/s, 174° | 814 W/m² | - |
| 1778000060 | 21.67° C | 61% | 1011.2 hPa | 0 mm | 2.24 m/s, 154° | 815 W/m² | - |
| 1777999756 | 21.67° C | 63% | 1011 hPa | 0 mm | 1.34 m/s, 183° | 817 W/m² | - |
| 1777999453 | 21.67° C | 65% | 1011.1 hPa | 0 mm | 0.45 m/s, 113° | 815 W/m² | - |
| 1777999151 | 21.67° C | 62% | 1011.4 hPa | 0 mm | 1.79 m/s, 271° | 809 W/m² | - |
| 1777998850 | 21.11° C | 64% | 1011.4 hPa | 0 mm | 1.79 m/s, 247° | 808 W/m² | - |
| 1777998548 | 21.67° C | 64% | 1011.4 hPa | 0 mm | 2.24 m/s, 95° | 805 W/m² | - |
| 1777998243 | 21.67° C | 64% | 1011.8 hPa | 0 mm | 1.79 m/s, 119° | 806 W/m² | - |
* Rain latest hour (hover to see other rain measurements)
** Current wind speed in m/s (hover to see current wind gust speed)